sensor_id;sensor_type;location;lat;lon;timestamp;temperature;humidity
38458;DHT22;24239;48.058;10.486;2023-03-26T00:01:03;5.60;99.90
38458;DHT22;24239;48.058;10.486;2023-03-26T00:03:50;5.50;99.90
38458;DHT22;24239;48.058;10.486;2023-03-26T00:06:42;5.40;99.90
38458;DHT22;24239;48.058;10.486;2023-03-26T00:09:28;5.40;99.90
38458;DHT22;24239;48.058;10.486;2023-03-26T00:12:12;5.50;99.90
38458;DHT22;24239;48.058;10.486;2023-03-26T00:15:01;5.50;99.90
38458;DHT22;24239;48.058;10.486;2023-03-26T00:17:48;5.50;99.90
38458;DHT22;24239;48.058;10.486;2023-03-26T00:20:33;5.40;99.90
38458;DHT22;24239;48.058;10.486;2023-03-26T00:23:19;5.30;99.90
38458;DHT22;24239;48.058;10.486;2023-03-26T00:26:05;5.20;99.90
38458;DHT22;24239;48.058;10.486;2023-03-26T00:28:54;5.20;99.90
38458;DHT22;24239;48.058;10.486;2023-03-26T00:31:40;5.20;99.90
38458;DHT22;24239;48.058;10.486;2023-03-26T00:34:30;5.30;99.90
38458;DHT22;24239;48.058;10.486;2023-03-26T00:37:18;5.10;99.90
38458;DHT22;24239;48.058;10.486;2023-03-26T00:40:04;5.30;99.90
38458;DHT22;24239;48.058;10.486;2023-03-26T00:42:52;5.40;99.90
38458;DHT22;24239;48.058;10.486;2023-03-26T00:45:37;5.30;99.90
38458;DHT22;24239;48.058;10.486;2023-03-26T00:48:23;5.20;99.90
38458;DHT22;24239;48.058;10.486;2023-03-26T00:51:09;5.30;99.90
38458;DHT22;24239;48.058;10.486;2023-03-26T00:53:55;5.40;99.90
38458;DHT22;24239;48.058;10.486;2023-03-26T00:56:31;5.20;99.90
38458;DHT22;24239;48.058;10.486;2023-03-26T00:59:17;5.20;99.90
38458;DHT22;24239;48.058;10.486;2023-03-26T01:01:57;5.40;99.90
38458;DHT22;24239;48.058;10.486;2023-03-26T01:04:46;5.50;99.90
38458;DHT22;24239;48.058;10.486;2023-03-26T01:07:25;5.60;99.90
38458;DHT22;24239;48.058;10.486;2023-03-26T01:10:13;5.50;99.90
38458;DHT22;24239;48.058;10.486;2023-03-26T01:12:49;5.50;99.90
38458;DHT22;24239;48.058;10.486;2023-03-26T01:15:34;5.20;99.90
38458;DHT22;24239;48.058;10.486;2023-03-26T01:18:24;5.20;99.90
38458;DHT22;24239;48.058;10.486;2023-03-26T01:21:10;5.20;99.90
38458;DHT22;24239;48.058;10.486;2023-03-26T01:23:59;5.20;99.90
38458;DHT22;24239;48.058;10.486;2023-03-26T01:35:05;5.20;99.90
38458;DHT22;24239;48.058;10.486;2023-03-26T01:37:49;5.40;99.90
38458;DHT22;24239;48.058;10.486;2023-03-26T01:46:35;5.30;99.90
38458;DHT22;24239;48.058;10.486;2023-03-26T01:49:11;5.30;99.90
38458;DHT22;24239;48.058;10.486;2023-03-26T01:51:55;5.10;99.90
38458;DHT22;24239;48.058;10.486;2023-03-26T01:54:32;5.10;99.90
38458;DHT22;24239;48.058;10.486;2023-03-26T01:57:55;5.00;99.90
38458;DHT22;24239;48.058;10.486;2023-03-26T02:11:10;5.20;99.90
38458;DHT22;24239;48.058;10.486;2023-03-26T02:13:47;5.20;99.90
38458;DHT22;24239;48.058;10.486;2023-03-26T02:16:23;5.30;99.90
38458;DHT22;24239;48.058;10.486;2023-03-26T02:18:58;5.30;99.90
38458;DHT22;24239;48.058;10.486;2023-03-26T02:21:43;5.20;99.90
38458;DHT22;24239;48.058;10.486;2023-03-26T02:24:21;5.20;99.90
38458;DHT22;24239;48.058;10.486;2023-03-26T02:26:56;5.20;99.90
38458;DHT22;24239;48.058;10.486;2023-03-26T02:29:42;5.20;99.90
38458;DHT22;24239;48.058;10.486;2023-03-26T02:32:17;5.20;99.90
38458;DHT22;24239;48.058;10.486;2023-03-26T02:34:54;5.30;99.90
38458;DHT22;24239;48.058;10.486;2023-03-26T02:37:39;5.30;99.90
38458;DHT22;24239;48.058;10.486;2023-03-26T02:40:17;5.40;99.90
38458;DHT22;24239;48.058;10.486;2023-03-26T02:42:52;5.40;99.90
38458;DHT22;24239;48.058;10.486;2023-03-26T02:45:28;5.30;99.90
38458;DHT22;24239;48.058;10.486;2023-03-26T02:48:04;5.20;99.90
38458;DHT22;24239;48.058;10.486;2023-03-26T02:50:39;5.20;99.90
38458;DHT22;24239;48.058;10.486;2023-03-26T02:53:15;5.20;99.90
38458;DHT22;24239;48.058;10.486;2023-03-26T02:55:51;5.10;99.90
38458;DHT22;24239;48.058;10.486;2023-03-26T02:58:26;5.30;99.90
38458;DHT22;24239;48.058;10.486;2023-03-26T03:01:04;5.20;99.90
38458;DHT22;24239;48.058;10.486;2023-03-26T03:03:39;5.10;99.90
38458;DHT22;24239;48.058;10.486;2023-03-26T03:06:16;5.20;99.90
38458;DHT22;24239;48.058;10.486;2023-03-26T03:08:53;5.30;99.90
38458;DHT22;24239;48.058;10.486;2023-03-26T03:11:28;5.40;99.90
38458;DHT22;24239;48.058;10.486;2023-03-26T03:14:04;5.50;99.90
38458;DHT22;24239;48.058;10.486;2023-03-26T03:16:39;5.50;99.90
38458;DHT22;24239;48.058;10.486;2023-03-26T03:19:15;5.40;99.90
38458;DHT22;24239;48.058;10.486;2023-03-26T03:21:53;5.50;99.90
38458;DHT22;24239;48.058;10.486;2023-03-26T03:24:29;5.50;99.90
38458;DHT22;24239;48.058;10.486;2023-03-26T03:27:08;5.50;99.90
38458;DHT22;24239;48.058;10.486;2023-03-26T03:29:43;5.40;99.90
38458;DHT22;24239;48.058;10.486;2023-03-26T03:32:19;5.40;99.90
38458;DHT22;24239;48.058;10.486;2023-03-26T03:34:56;5.40;99.90
38458;DHT22;24239;48.058;10.486;2023-03-26T03:37:32;5.40;99.90
38458;DHT22;24239;48.058;10.486;2023-03-26T03:40:07;5.50;99.90
38458;DHT22;24239;48.058;10.486;2023-03-26T03:42:45;5.50;99.90
38458;DHT22;24239;48.058;10.486;2023-03-26T03:45:21;5.40;99.90
38458;DHT22;24239;48.058;10.486;2023-03-26T03:47:56;5.40;99.90
38458;DHT22;24239;48.058;10.486;2023-03-26T03:50:35;5.30;99.90
38458;DHT22;24239;48.058;10.486;2023-03-26T03:53:10;5.50;99.90
38458;DHT22;24239;48.058;10.486;2023-03-26T03:55:53;5.30;99.90
38458;DHT22;24239;48.058;10.486;2023-03-26T03:58:29;5.40;99.90
38458;DHT22;24239;48.058;10.486;2023-03-26T04:01:05;5.40;99.90
38458;DHT22;24239;48.058;10.486;2023-03-26T04:03:40;5.40;99.90
38458;DHT22;24239;48.058;10.486;2023-03-26T04:06:20;5.40;99.90
38458;DHT22;24239;48.058;10.486;2023-03-26T04:08:56;5.40;99.90
38458;DHT22;24239;48.058;10.486;2023-03-26T04:11:31;5.30;99.90
38458;DHT22;24239;48.058;10.486;2023-03-26T04:14:07;5.30;99.90
38458;DHT22;24239;48.058;10.486;2023-03-26T04:16:42;5.20;99.90
38458;DHT22;24239;48.058;10.486;2023-03-26T04:19:18;5.20;99.90
38458;DHT22;24239;48.058;10.486;2023-03-26T04:21:53;5.30;99.90
38458;DHT22;24239;48.058;10.486;2023-03-26T04:24:29;5.20;99.90
38458;DHT22;24239;48.058;10.486;2023-03-26T04:27:08;5.20;99.90
38458;DHT22;24239;48.058;10.486;2023-03-26T04:29:47;5.20;99.90
38458;DHT22;24239;48.058;10.486;2023-03-26T04:32:24;5.20;99.90
38458;DHT22;24239;48.058;10.486;2023-03-26T04:35:06;5.10;99.90
38458;DHT22;24239;48.058;10.486;2023-03-26T04:37:46;5.20;99.90
38458;DHT22;24239;48.058;10.486;2023-03-26T04:40:22;5.20;99.90
38458;DHT22;24239;48.058;10.486;2023-03-26T04:42:57;5.20;99.90
38458;DHT22;24239;48.058;10.486;2023-03-26T04:45:34;5.20;99.90
38458;DHT22;24239;48.058;10.486;2023-03-26T04:48:09;5.20;99.90
38458;DHT22;24239;48.058;10.486;2023-03-26T04:50:48;5.20;99.90
38458;DHT22;24239;48.058;10.486;2023-03-26T04:53:24;5.20;99.90
38458;DHT22;24239;48.058;10.486;2023-03-26T04:56:02;5.30;99.90
38458;DHT22;24239;48.058;10.486;2023-03-26T04:58:40;5.40;99.90
38458;DHT22;24239;48.058;10.486;2023-03-26T05:01:16;5.40;99.90
38458;DHT22;24239;48.058;10.486;2023-03-26T05:03:51;5.40;99.90
38458;DHT22;24239;48.058;10.486;2023-03-26T05:06:29;5.40;99.90
38458;DHT22;24239;48.058;10.486;2023-03-26T05:09:08;5.40;99.90
38458;DHT22;24239;48.058;10.486;2023-03-26T05:11:44;5.40;99.90
38458;DHT22;24239;48.058;10.486;2023-03-26T05:14:20;5.40;99.90
38458;DHT22;24239;48.058;10.486;2023-03-26T05:16:56;5.50;99.90
38458;DHT22;24239;48.058;10.486;2023-03-26T05:19:31;5.50;99.90
38458;DHT22;24239;48.058;10.486;2023-03-26T05:22:07;5.60;99.90
38458;DHT22;24239;48.058;10.486;2023-03-26T05:24:43;5.50;99.90
38458;DHT22;24239;48.058;10.486;2023-03-26T05:27:19;5.60;99.90
38458;DHT22;24239;48.058;10.486;2023-03-26T05:29:59;5.60;99.90
38458;DHT22;24239;48.058;10.486;2023-03-26T05:32:34;5.60;99.90
38458;DHT22;24239;48.058;10.486;2023-03-26T05:35:10;5.60;99.90
38458;DHT22;24239;48.058;10.486;2023-03-26T05:37:46;5.70;99.90
38458;DHT22;24239;48.058;10.486;2023-03-26T05:40:25;5.70;99.90
38458;DHT22;24239;48.058;10.486;2023-03-26T05:43:01;5.70;99.90
38458;DHT22;24239;48.058;10.486;2023-03-26T05:45:36;5.70;99.90
38458;DHT22;24239;48.058;10.486;2023-03-26T05:48:12;5.90;99.90
38458;DHT22;24239;48.058;10.486;2023-03-26T05:50:48;5.80;99.90
38458;DHT22;24239;48.058;10.486;2023-03-26T05:53:24;5.80;99.90
38458;DHT22;24239;48.058;10.486;2023-03-26T05:56:00;5.80;99.90
38458;DHT22;24239;48.058;10.486;2023-03-26T05:58:36;5.80;99.90
38458;DHT22;24239;48.058;10.486;2023-03-26T06:01:12;5.90;99.90
38458;DHT22;24239;48.058;10.486;2023-03-26T06:03:51;5.90;99.90
38458;DHT22;24239;48.058;10.486;2023-03-26T06:06:27;6.00;99.90
38458;DHT22;24239;48.058;10.486;2023-03-26T06:09:02;5.90;99.90
38458;DHT22;24239;48.058;10.486;2023-03-26T06:11:38;5.90;99.90
38458;DHT22;24239;48.058;10.486;2023-03-26T06:14:14;5.90;99.90
38458;DHT22;24239;48.058;10.486;2023-03-26T06:16:50;5.90;99.90
38458;DHT22;24239;48.058;10.486;2023-03-26T06:19:25;6.00;99.90
38458;DHT22;24239;48.058;10.486;2023-03-26T06:22:01;6.00;99.90
38458;DHT22;24239;48.058;10.486;2023-03-26T06:24:37;5.90;99.90
38458;DHT22;24239;48.058;10.486;2023-03-26T06:27:12;6.10;99.90
38458;DHT22;24239;48.058;10.486;2023-03-26T06:29:50;6.00;99.90
38458;DHT22;24239;48.058;10.486;2023-03-26T06:32:26;6.10;99.90
38458;DHT22;24239;48.058;10.486;2023-03-26T06:35:01;6.10;99.90
38458;DHT22;24239;48.058;10.486;2023-03-26T06:37:37;6.10;99.90
38458;DHT22;24239;48.058;10.486;2023-03-26T06:40:13;6.20;99.90
38458;DHT22;24239;48.058;10.486;2023-03-26T06:42:48;6.10;99.90
38458;DHT22;24239;48.058;10.486;2023-03-26T06:45:27;6.10;99.90
38458;DHT22;24239;48.058;10.486;2023-03-26T06:48:03;6.10;99.90
38458;DHT22;24239;48.058;10.486;2023-03-26T06:50:38;6.20;99.90
38458;DHT22;24239;48.058;10.486;2023-03-26T06:53:14;6.20;99.90
38458;DHT22;24239;48.058;10.486;2023-03-26T06:55:51;6.20;99.90
38458;DHT22;24239;48.058;10.486;2023-03-26T06:58:26;6.20;99.90
38458;DHT22;24239;48.058;10.486;2023-03-26T07:01:02;6.10;99.90
38458;DHT22;24239;48.058;10.486;2023-03-26T07:03:38;6.20;99.90
38458;DHT22;24239;48.058;10.486;2023-03-26T07:06:13;6.30;99.90
38458;DHT22;24239;48.058;10.486;2023-03-26T07:08:49;6.40;99.90
38458;DHT22;24239;48.058;10.486;2023-03-26T07:11:24;6.40;99.90
38458;DHT22;24239;48.058;10.486;2023-03-26T07:14:01;6.50;99.90
38458;DHT22;24239;48.058;10.486;2023-03-26T07:16:36;6.70;99.90
38458;DHT22;24239;48.058;10.486;2023-03-26T07:19:12;6.80;99.90
38458;DHT22;24239;48.058;10.486;2023-03-26T07:21:47;7.00;99.90
38458;DHT22;24239;48.058;10.486;2023-03-26T07:24:26;6.80;99.90
38458;DHT22;24239;48.058;10.486;2023-03-26T07:27:05;6.80;99.90
38458;DHT22;24239;48.058;10.486;2023-03-26T07:29:54;7.00;99.90
38458;DHT22;24239;48.058;10.486;2023-03-26T07:46:11;7.40;99.90
38458;DHT22;24239;48.058;10.486;2023-03-26T07:48:47;7.30;99.90
38458;DHT22;24239;48.058;10.486;2023-03-26T07:51:23;7.40;99.90
38458;DHT22;24239;48.058;10.486;2023-03-26T07:53:59;7.60;99.90
38458;DHT22;24239;48.058;10.486;2023-03-26T08:21:10;7.50;99.90
38458;DHT22;24239;48.058;10.486;2023-03-26T08:32:14;7.70;99.90
38458;DHT22;24239;48.058;10.486;2023-03-26T08:34:50;7.70;99.90
38458;DHT22;24239;48.058;10.486;2023-03-26T08:37:26;7.70;99.90
38458;DHT22;24239;48.058;10.486;2023-03-26T08:40:03;7.70;99.90
38458;DHT22;24239;48.058;10.486;2023-03-26T08:43:03;7.60;99.90
38458;DHT22;24239;48.058;10.486;2023-03-26T08:45:46;7.60;99.90
38458;DHT22;24239;48.058;10.486;2023-03-26T08:57:27;7.40;99.90
38458;DHT22;24239;48.058;10.486;2023-03-26T09:05:40;7.30;99.90
38458;DHT22;24239;48.058;10.486;2023-03-26T09:43:53;8.30;99.90
38458;DHT22;24239;48.058;10.486;2023-03-26T09:46:47;8.50;99.90
38458;DHT22;24239;48.058;10.486;2023-03-26T09:57:51;8.60;99.90
38458;DHT22;24239;48.058;10.486;2023-03-26T10:00:50;8.30;99.90
38458;DHT22;24239;48.058;10.486;2023-03-26T10:03:40;8.10;99.90
38458;DHT22;24239;48.058;10.486;2023-03-26T10:14:39;7.60;99.90
38458;DHT22;24239;48.058;10.486;2023-03-26T10:20:26;7.70;99.90
38458;DHT22;24239;48.058;10.486;2023-03-26T10:25:42;8.00;99.90
38458;DHT22;24239;48.058;10.486;2023-03-26T10:33:57;7.80;99.90
38458;DHT22;24239;48.058;10.486;2023-03-26T10:41:52;8.10;99.90
38458;DHT22;24239;48.058;10.486;2023-03-26T10:55:08;7.70;99.90
38458;DHT22;24239;48.058;10.486;2023-03-26T10:57:52;7.50;99.90
38458;DHT22;24239;48.058;10.486;2023-03-26T11:00:23;7.70;99.90
38458;DHT22;24239;48.058;10.486;2023-03-26T11:05:25;7.80;99.90
38458;DHT22;24239;48.058;10.486;2023-03-26T11:15:43;8.70;99.90
38458;DHT22;24239;48.058;10.486;2023-03-26T11:18:20;8.80;99.90
38458;DHT22;24239;48.058;10.486;2023-03-26T11:20:51;8.90;99.90
38458;DHT22;24239;48.058;10.486;2023-03-26T11:30:50;9.40;99.90
38458;DHT22;24239;48.058;10.486;2023-03-26T11:33:44;9.50;99.90
38458;DHT22;24239;48.058;10.486;2023-03-26T11:36:11;9.70;99.90
38458;DHT22;24239;48.058;10.486;2023-03-26T11:38:40;9.70;99.90
38458;DHT22;24239;48.058;10.486;2023-03-26T11:41:11;10.00;99.90
38458;DHT22;24239;48.058;10.486;2023-03-26T11:43:38;10.00;99.90
38458;DHT22;24239;48.058;10.486;2023-03-26T11:46:07;10.00;99.90
38458;DHT22;24239;48.058;10.486;2023-03-26T11:48:39;10.10;99.90
38458;DHT22;24239;48.058;10.486;2023-03-26T11:51:08;10.20;99.90
38458;DHT22;24239;48.058;10.486;2023-03-26T11:53:37;10.30;99.90
38458;DHT22;24239;48.058;10.486;2023-03-26T11:56:10;10.30;99.90
38458;DHT22;24239;48.058;10.486;2023-03-26T11:58:58;10.30;99.90
38458;DHT22;24239;48.058;10.486;2023-03-26T12:01:27;10.50;99.90
38458;DHT22;24239;48.058;10.486;2023-03-26T12:04:01;10.40;99.90
38458;DHT22;24239;48.058;10.486;2023-03-26T12:06:29;10.60;99.90
38458;DHT22;24239;48.058;10.486;2023-03-26T12:08:58;10.60;99.90
38458;DHT22;24239;48.058;10.486;2023-03-26T12:11:26;10.40;99.90
38458;DHT22;24239;48.058;10.486;2023-03-26T12:13:57;10.30;99.90
38458;DHT22;24239;48.058;10.486;2023-03-26T12:16:25;10.20;99.90
38458;DHT22;24239;48.058;10.486;2023-03-26T12:18:57;10.20;99.90
38458;DHT22;24239;48.058;10.486;2023-03-26T12:21:27;10.00;99.90
38458;DHT22;24239;48.058;10.486;2023-03-26T12:24:02;10.10;99.90
38458;DHT22;24239;48.058;10.486;2023-03-26T12:29:19;10.10;99.90
38458;DHT22;24239;48.058;10.486;2023-03-26T12:34:15;10.00;99.90
38458;DHT22;24239;48.058;10.486;2023-03-26T12:36:50;10.20;99.90
38458;DHT22;24239;48.058;10.486;2023-03-26T12:39:39;10.20;99.90
38458;DHT22;24239;48.058;10.486;2023-03-26T12:42:08;10.30;99.90
38458;DHT22;24239;48.058;10.486;2023-03-26T12:44:49;10.10;99.90
38458;DHT22;24239;48.058;10.486;2023-03-26T12:50:07;9.90;99.90
38458;DHT22;24239;48.058;10.486;2023-03-26T13:01:01;9.50;99.90
38458;DHT22;24239;48.058;10.486;2023-03-26T13:03:42;9.30;99.90
38458;DHT22;24239;48.058;10.486;2023-03-26T13:14:27;9.40;99.90
38458;DHT22;24239;48.058;10.486;2023-03-26T13:37:30;10.90;99.90
38458;DHT22;24239;48.058;10.486;2023-03-26T13:42:56;11.00;99.90
38458;DHT22;24239;48.058;10.486;2023-03-26T13:45:31;11.00;99.90
38458;DHT22;24239;48.058;10.486;2023-03-26T13:47:58;11.00;99.90
38458;DHT22;24239;48.058;10.486;2023-03-26T13:50:43;11.20;99.90
38458;DHT22;24239;48.058;10.486;2023-03-26T13:53:15;11.30;99.90
38458;DHT22;24239;48.058;10.486;2023-03-26T13:55:43;11.10;99.90
38458;DHT22;24239;48.058;10.486;2023-03-26T13:58:15;11.10;99.90
38458;DHT22;24239;48.058;10.486;2023-03-26T14:03:25;11.10;99.90
38458;DHT22;24239;48.058;10.486;2023-03-26T14:05:55;11.10;99.90
38458;DHT22;24239;48.058;10.486;2023-03-26T14:11:05;10.90;99.90
38458;DHT22;24239;48.058;10.486;2023-03-26T14:13:42;10.80;99.90
38458;DHT22;24239;48.058;10.486;2023-03-26T14:16:15;10.50;99.90
38458;DHT22;24239;48.058;10.486;2023-03-26T14:19:02;10.20;99.90
38458;DHT22;24239;48.058;10.486;2023-03-26T14:21:43;10.10;99.90
38458;DHT22;24239;48.058;10.486;2023-03-26T14:27:05;9.80;99.90
38458;DHT22;24239;48.058;10.486;2023-03-26T14:29:49;9.70;99.90
38458;DHT22;24239;48.058;10.486;2023-03-26T14:32:20;9.80;99.90
38458;DHT22;24239;48.058;10.486;2023-03-26T14:40:43;9.50;99.90
38458;DHT22;24239;48.058;10.486;2023-03-26T14:43:13;9.30;99.90
38458;DHT22;24239;48.058;10.486;2023-03-26T14:45:44;9.10;99.90
38458;DHT22;24239;48.058;10.486;2023-03-26T14:53:33;8.60;99.90
38458;DHT22;24239;48.058;10.486;2023-03-26T15:09:22;9.30;99.90
38458;DHT22;24239;48.058;10.486;2023-03-26T15:20:14;9.50;99.90
38458;DHT22;24239;48.058;10.486;2023-03-26T15:34:32;9.40;99.90
38458;DHT22;24239;48.058;10.486;2023-03-26T15:53:15;8.70;99.90
38458;DHT22;24239;48.058;10.486;2023-03-26T16:11:42;8.30;99.90
38458;DHT22;24239;48.058;10.486;2023-03-26T16:16:53;8.20;99.90
38458;DHT22;24239;48.058;10.486;2023-03-26T16:21:54;8.20;99.90
38458;DHT22;24239;48.058;10.486;2023-03-26T16:24:25;8.00;99.90
38458;DHT22;24239;48.058;10.486;2023-03-26T16:32:34;7.90;99.90
38458;DHT22;24239;48.058;10.486;2023-03-26T16:35:21;7.80;99.90
38458;DHT22;24239;48.058;10.486;2023-03-26T16:38:04;7.80;99.90
38458;DHT22;24239;48.058;10.486;2023-03-26T16:40:34;7.80;99.90
38458;DHT22;24239;48.058;10.486;2023-03-26T16:56:05;6.70;99.90
38458;DHT22;24239;48.058;10.486;2023-03-26T17:03:54;6.20;99.90
38458;DHT22;24239;48.058;10.486;2023-03-26T17:09:05;6.00;99.90
38458;DHT22;24239;48.058;10.486;2023-03-26T17:17:07;5.60;99.90
38458;DHT22;24239;48.058;10.486;2023-03-26T17:30:41;5.30;99.90
38458;DHT22;24239;48.058;10.486;2023-03-26T17:35:45;5.10;99.90
38458;DHT22;24239;48.058;10.486;2023-03-26T17:40:47;5.10;99.90
38458;DHT22;24239;48.058;10.486;2023-03-26T17:45:57;5.00;99.90
38458;DHT22;24239;48.058;10.486;2023-03-26T17:48:24;5.10;99.90
38458;DHT22;24239;48.058;10.486;2023-03-26T17:51:10;5.00;99.90
38458;DHT22;24239;48.058;10.486;2023-03-26T17:53:37;5.00;99.90
38458;DHT22;24239;48.058;10.486;2023-03-26T17:56:16;5.00;99.90
38458;DHT22;24239;48.058;10.486;2023-03-26T17:58:45;5.10;99.90
38458;DHT22;24239;48.058;10.486;2023-03-26T18:03:47;5.20;99.90
38458;DHT22;24239;48.058;10.486;2023-03-26T18:06:22;5.20;99.90
38458;DHT22;24239;48.058;10.486;2023-03-26T18:16:44;5.30;99.90
38458;DHT22;24239;48.058;10.486;2023-03-26T18:19:13;5.20;99.90
38458;DHT22;24239;48.058;10.486;2023-03-26T18:21:48;5.30;99.90
38458;DHT22;24239;48.058;10.486;2023-03-26T18:24:20;5.20;99.90
38458;DHT22;24239;48.058;10.486;2023-03-26T18:26:48;5.30;99.90
38458;DHT22;24239;48.058;10.486;2023-03-26T18:29:33;5.20;99.90
38458;DHT22;24239;48.058;10.486;2023-03-26T18:32:00;5.40;99.90
38458;DHT22;24239;48.058;10.486;2023-03-26T18:34:29;5.30;99.90
38458;DHT22;24239;48.058;10.486;2023-03-26T18:39:40;5.50;99.90
38458;DHT22;24239;48.058;10.486;2023-03-26T18:42:14;5.40;99.90
38458;DHT22;24239;48.058;10.486;2023-03-26T18:44:41;5.20;99.90
38458;DHT22;24239;48.058;10.486;2023-03-26T18:47:06;5.30;99.90
38458;DHT22;24239;48.058;10.486;2023-03-26T18:49:36;5.30;99.90
38458;DHT22;24239;48.058;10.486;2023-03-26T18:52:02;5.30;99.90
38458;DHT22;24239;48.058;10.486;2023-03-26T18:54:29;5.20;99.90
38458;DHT22;24239;48.058;10.486;2023-03-26T18:56:58;5.20;99.90
38458;DHT22;24239;48.058;10.486;2023-03-26T18:59:34;5.10;99.90
38458;DHT22;24239;48.058;10.486;2023-03-26T19:02:04;5.10;99.90
38458;DHT22;24239;48.058;10.486;2023-03-26T19:04:31;5.00;99.90
38458;DHT22;24239;48.058;10.486;2023-03-26T19:07:10;5.10;99.90
38458;DHT22;24239;48.058;10.486;2023-03-26T19:09:38;5.10;99.90
38458;DHT22;24239;48.058;10.486;2023-03-26T19:12:07;4.90;99.90
38458;DHT22;24239;48.058;10.486;2023-03-26T19:14:49;4.90;99.90
38458;DHT22;24239;48.058;10.486;2023-03-26T19:17:16;4.80;99.90
38458;DHT22;24239;48.058;10.486;2023-03-26T19:19:42;4.80;99.90
38458;DHT22;24239;48.058;10.486;2023-03-26T19:22:09;4.80;99.90
38458;DHT22;24239;48.058;10.486;2023-03-26T19:24:36;4.90;99.90
38458;DHT22;24239;48.058;10.486;2023-03-26T19:27:02;4.60;99.90
38458;DHT22;24239;48.058;10.486;2023-03-26T19:29:30;4.60;99.90
38458;DHT22;24239;48.058;10.486;2023-03-26T19:32:16;4.50;99.90
38458;DHT22;24239;48.058;10.486;2023-03-26T19:34:43;4.50;99.90
38458;DHT22;24239;48.058;10.486;2023-03-26T19:37:47;4.30;99.90
38458;DHT22;24239;48.058;10.486;2023-03-26T19:40:16;4.20;99.90
38458;DHT22;24239;48.058;10.486;2023-03-26T19:42:42;4.20;99.90
38458;DHT22;24239;48.058;10.486;2023-03-26T19:45:11;4.30;99.90
38458;DHT22;24239;48.058;10.486;2023-03-26T19:47:41;4.30;99.90
38458;DHT22;24239;48.058;10.486;2023-03-26T19:50:27;4.20;99.90
38458;DHT22;24239;48.058;10.486;2023-03-26T19:55:54;4.30;99.90
38458;DHT22;24239;48.058;10.486;2023-03-26T19:58:25;4.30;99.90
38458;DHT22;24239;48.058;10.486;2023-03-26T20:00:51;4.30;99.90
38458;DHT22;24239;48.058;10.486;2023-03-26T20:03:20;4.40;99.90
38458;DHT22;24239;48.058;10.486;2023-03-26T20:05:47;4.30;99.90
38458;DHT22;24239;48.058;10.486;2023-03-26T20:08:13;4.40;99.90
38458;DHT22;24239;48.058;10.486;2023-03-26T20:10:40;4.30;99.90
38458;DHT22;24239;48.058;10.486;2023-03-26T20:13:13;4.30;99.90
38458;DHT22;24239;48.058;10.486;2023-03-26T20:15:40;4.40;99.90
38458;DHT22;24239;48.058;10.486;2023-03-26T20:18:07;4.30;99.90
38458;DHT22;24239;48.058;10.486;2023-03-26T20:20:36;4.40;99.90
38458;DHT22;24239;48.058;10.486;2023-03-26T20:23:02;4.30;99.90
38458;DHT22;24239;48.058;10.486;2023-03-26T20:25:31;4.30;99.90
38458;DHT22;24239;48.058;10.486;2023-03-26T20:27:58;4.40;99.90
38458;DHT22;24239;48.058;10.486;2023-03-26T20:30:33;4.50;99.90
38458;DHT22;24239;48.058;10.486;2023-03-26T20:33:23;4.30;99.90
38458;DHT22;24239;48.058;10.486;2023-03-26T20:35:59;4.40;99.90
38458;DHT22;24239;48.058;10.486;2023-03-26T20:38:35;4.60;99.90
38458;DHT22;24239;48.058;10.486;2023-03-26T20:41:12;4.40;99.90
38458;DHT22;24239;48.058;10.486;2023-03-26T20:43:48;4.40;99.90
38458;DHT22;24239;48.058;10.486;2023-03-26T20:46:24;4.40;99.90
38458;DHT22;24239;48.058;10.486;2023-03-26T20:49:00;4.30;99.90
38458;DHT22;24239;48.058;10.486;2023-03-26T20:51:36;4.20;99.90
38458;DHT22;24239;48.058;10.486;2023-03-26T20:54:20;4.20;99.90
38458;DHT22;24239;48.058;10.486;2023-03-26T20:56:57;4.30;99.90
38458;DHT22;24239;48.058;10.486;2023-03-26T20:59:35;4.40;99.90
38458;DHT22;24239;48.058;10.486;2023-03-26T21:02:10;4.40;99.90
38458;DHT22;24239;48.058;10.486;2023-03-26T21:04:49;4.40;99.90
38458;DHT22;24239;48.058;10.486;2023-03-26T21:07:26;4.40;99.90
38458;DHT22;24239;48.058;10.486;2023-03-26T21:10:02;4.30;99.90
38458;DHT22;24239;48.058;10.486;2023-03-26T21:12:40;4.30;99.90
38458;DHT22;24239;48.058;10.486;2023-03-26T21:15:18;4.30;99.90
38458;DHT22;24239;48.058;10.486;2023-03-26T21:17:54;4.20;99.90
38458;DHT22;24239;48.058;10.486;2023-03-26T21:20:30;4.20;99.90
38458;DHT22;24239;48.058;10.486;2023-03-26T21:28:32;4.20;99.90
38458;DHT22;24239;48.058;10.486;2023-03-26T21:31:11;4.20;99.90
38458;DHT22;24239;48.058;10.486;2023-03-26T21:33:48;4.10;99.90
38458;DHT22;24239;48.058;10.486;2023-03-26T21:36:24;4.20;99.90
38458;DHT22;24239;48.058;10.486;2023-03-26T21:38:59;4.10;99.90
38458;DHT22;24239;48.058;10.486;2023-03-26T21:44:32;4.20;99.90
38458;DHT22;24239;48.058;10.486;2023-03-26T21:47:08;4.10;99.90
38458;DHT22;24239;48.058;10.486;2023-03-26T21:49:44;4.20;99.90
38458;DHT22;24239;48.058;10.486;2023-03-26T21:52:20;4.20;99.90
38458;DHT22;24239;48.058;10.486;2023-03-26T21:54:57;4.30;99.90
38458;DHT22;24239;48.058;10.486;2023-03-26T22:00:22;4.30;99.90
38458;DHT22;24239;48.058;10.486;2023-03-26T22:09:00;4.30;99.90
38458;DHT22;24239;48.058;10.486;2023-03-26T22:11:46;4.30;99.90
38458;DHT22;24239;48.058;10.486;2023-03-26T22:14:31;4.20;99.90
38458;DHT22;24239;48.058;10.486;2023-03-26T22:17:18;4.30;99.90
38458;DHT22;24239;48.058;10.486;2023-03-26T22:20:03;4.30;99.90
38458;DHT22;24239;48.058;10.486;2023-03-26T22:22:43;4.30;99.90
38458;DHT22;24239;48.058;10.486;2023-03-26T22:25:32;4.30;99.90
38458;DHT22;24239;48.058;10.486;2023-03-26T22:28:18;4.30;99.90
38458;DHT22;24239;48.058;10.486;2023-03-26T22:30:54;4.40;99.90
38458;DHT22;24239;48.058;10.486;2023-03-26T22:33:37;4.50;99.90
38458;DHT22;24239;48.058;10.486;2023-03-26T22:36:14;4.50;99.90
38458;DHT22;24239;48.058;10.486;2023-03-26T22:38:58;4.40;99.90
38458;DHT22;24239;48.058;10.486;2023-03-26T22:41:44;4.40;99.90
38458;DHT22;24239;48.058;10.486;2023-03-26T22:44:30;4.40;99.90
38458;DHT22;24239;48.058;10.486;2023-03-26T22:47:05;4.50;99.90
38458;DHT22;24239;48.058;10.486;2023-03-26T22:49:52;4.40;99.90
38458;DHT22;24239;48.058;10.486;2023-03-26T22:52:29;4.40;99.90
38458;DHT22;24239;48.058;10.486;2023-03-26T22:55:11;4.50;99.90
38458;DHT22;24239;48.058;10.486;2023-03-26T22:57:50;4.40;99.90
38458;DHT22;24239;48.058;10.486;2023-03-26T23:00:36;4.40;99.90
38458;DHT22;24239;48.058;10.486;2023-03-26T23:03:14;4.40;99.90
38458;DHT22;24239;48.058;10.486;2023-03-26T23:05:53;4.40;99.90
38458;DHT22;24239;48.058;10.486;2023-03-26T23:08:30;4.40;99.90
38458;DHT22;24239;48.058;10.486;2023-03-26T23:11:16;4.40;99.90
38458;DHT22;24239;48.058;10.486;2023-03-26T23:14:02;4.40;99.90